createdAt,value
2018-06-10T00:00:44.018Z,17.70
2018-06-10T00:03:12.654Z,17.60
2018-06-10T00:05:41.255Z,17.50
2018-06-10T00:08:09.857Z,17.40
2018-06-10T00:10:38.489Z,17.40
2018-06-10T00:13:07.155Z,17.40
2018-06-10T00:15:35.810Z,17.50
2018-06-10T00:18:04.468Z,17.40
2018-06-10T00:23:01.373Z,17.40
2018-06-10T00:25:30.035Z,17.50
2018-06-10T00:27:58.774Z,17.60
2018-06-10T00:30:27.432Z,17.60
2018-06-10T00:32:56.092Z,17.60
2018-06-10T00:35:24.735Z,17.60
2018-06-10T00:37:53.392Z,17.50
2018-06-10T00:40:22.026Z,17.50
2018-06-10T00:42:50.698Z,17.50
2018-06-10T00:45:19.328Z,17.40
2018-06-10T00:47:47.967Z,17.40
2018-06-10T00:50:16.601Z,17.20
2018-06-10T00:52:45.315Z,17.20
2018-06-10T00:55:14.074Z,17.10
2018-06-10T00:57:42.782Z,17.20
2018-06-10T01:00:11.459Z,17.30
2018-06-10T01:02:40.071Z,17.40
2018-06-10T01:05:09.327Z,17.40
2018-06-10T01:07:37.948Z,17.50
2018-06-10T01:10:06.655Z,17.70
2018-06-10T01:12:35.342Z,17.80
2018-06-10T01:15:04.078Z,17.90
2018-06-10T01:17:33.421Z,18.00
2018-06-10T01:20:02.154Z,18.10
2018-06-10T01:22:30.779Z,18.10
2018-06-10T01:24:59.603Z,18.20
2018-06-10T01:27:28.277Z,18.20
2018-06-10T01:29:56.967Z,18.20
2018-06-10T01:32:25.633Z,18.20
2018-06-10T01:34:55.212Z,18.20
2018-06-10T01:37:23.857Z,18.20
2018-06-10T01:39:52.550Z,18.10
2018-06-10T01:42:26.841Z,18.00
2018-06-10T01:44:55.526Z,17.90
2018-06-10T01:47:24.193Z,17.80
2018-06-10T01:49:52.880Z,17.70
2018-06-10T01:52:21.525Z,17.60
2018-06-10T01:54:50.255Z,17.50
2018-06-10T01:57:19.312Z,17.40
2018-06-10T01:59:48.026Z,17.30
2018-06-10T02:02:16.654Z,17.30
2018-06-10T02:04:45.308Z,17.20
2018-06-10T02:07:13.933Z,17.20
2018-06-10T02:09:42.577Z,17.20
2018-06-10T02:12:11.257Z,17.20
2018-06-10T02:14:39.912Z,17.20
2018-06-10T02:17:08.550Z,17.10
2018-06-10T02:19:37.216Z,17.10
2018-06-10T02:22:05.939Z,17.00
2018-06-10T02:24:34.592Z,17.00
2018-06-10T02:27:03.275Z,16.90
2018-06-10T02:32:00.196Z,16.80
2018-06-10T02:34:28.812Z,16.80
2018-06-10T02:36:57.495Z,16.70
2018-06-10T02:39:26.113Z,16.80
2018-06-10T02:41:54.837Z,16.70
2018-06-10T02:44:23.467Z,16.70
2018-06-10T02:46:52.241Z,16.60
2018-06-10T02:49:20.966Z,16.70
2018-06-10T02:51:49.625Z,16.60
2018-06-10T02:54:18.224Z,16.60
2018-06-10T02:56:46.892Z,16.60
2018-06-10T02:59:15.571Z,16.60
2018-06-10T03:01:44.227Z,16.60
2018-06-10T03:04:12.870Z,16.50
2018-06-10T03:06:41.527Z,16.40
2018-06-10T03:09:10.246Z,16.40
2018-06-10T03:11:38.798Z,16.40
2018-06-10T03:14:07.345Z,16.40
2018-06-10T03:16:35.933Z,16.30
2018-06-10T03:19:04.521Z,16.30
2018-06-10T03:21:33.228Z,16.30
2018-06-10T03:24:01.903Z,16.30
2018-06-10T03:26:30.542Z,16.20
2018-06-10T03:28:59.246Z,16.20
2018-06-10T03:31:27.920Z,16.20
2018-06-10T03:33:56.514Z,16.10
2018-06-10T03:36:25.197Z,16.10
2018-06-10T03:38:53.865Z,16.20
2018-06-10T03:41:22.507Z,16.20
2018-06-10T03:43:51.157Z,16.20
2018-06-10T03:46:19.853Z,16.20
2018-06-10T03:48:48.556Z,16.20
2018-06-10T03:51:17.270Z,16.20
2018-06-10T03:53:45.845Z,16.30
2018-06-10T03:56:14.528Z,16.30
2018-06-10T03:58:43.137Z,16.30
2018-06-10T04:01:11.761Z,16.40
2018-06-10T04:03:40.733Z,16.40
2018-06-10T04:06:09.402Z,16.40
2018-06-10T04:08:38.077Z,16.40
2018-06-10T04:11:06.700Z,16.50
2018-06-10T04:13:35.335Z,16.50
2018-06-10T04:16:04.026Z,16.60
2018-06-10T04:18:32.660Z,16.60
2018-06-10T04:21:01.300Z,16.60
2018-06-10T04:23:30.024Z,16.70
2018-06-10T04:25:58.646Z,16.70
2018-06-10T04:28:27.268Z,16.80
2018-06-10T04:30:55.944Z,16.80
2018-06-10T04:33:24.524Z,16.90
2018-06-10T04:35:53.221Z,17.00
2018-06-10T04:38:21.916Z,17.10
2018-06-10T04:40:50.604Z,17.20
2018-06-10T04:46:28.303Z,17.50
2018-06-10T04:48:57.024Z,17.60
2018-06-10T04:51:25.693Z,17.80
2018-06-10T04:53:54.441Z,18.00
2018-06-10T04:56:23.018Z,18.20
2018-06-10T04:58:51.652Z,18.40
2018-06-10T05:01:20.328Z,18.50
2018-06-10T05:03:48.937Z,18.60
2018-06-10T05:06:17.577Z,18.60
2018-06-10T05:08:46.242Z,18.60
2018-06-10T05:11:14.886Z,18.70
2018-06-10T05:13:45.588Z,18.80
2018-06-10T05:16:22.532Z,18.90
2018-06-10T05:18:51.220Z,19.20
2018-06-10T05:21:19.912Z,19.40
2018-06-10T05:24:09.321Z,19.50
2018-06-10T05:26:38.570Z,19.60
2018-06-10T05:29:13.141Z,19.70
2018-06-10T05:31:41.808Z,19.80
2018-06-10T05:34:10.581Z,19.90
2018-06-10T05:36:39.203Z,19.80
2018-06-10T05:39:08.900Z,19.80
2018-06-10T05:41:37.594Z,19.80
2018-06-10T05:44:06.386Z,19.80
2018-06-10T05:46:35.057Z,19.80
2018-06-10T05:49:03.700Z,19.90
2018-06-10T05:51:32.329Z,20.00
2018-06-10T05:54:01.104Z,20.10
2018-06-10T05:56:29.769Z,20.00
2018-06-10T05:58:58.431Z,20.10
2018-06-10T06:01:27.067Z,20.10
2018-06-10T06:03:55.683Z,20.30
2018-06-10T06:06:24.839Z,20.30
2018-06-10T06:08:53.725Z,20.50
2018-06-10T06:11:22.374Z,20.60
2018-06-10T06:13:52.613Z,20.60
2018-06-10T06:16:21.350Z,20.60
2018-06-10T06:18:50.074Z,20.60
2018-06-10T06:21:18.676Z,20.70
2018-06-10T06:23:47.591Z,20.90
2018-06-10T06:26:16.269Z,20.70
2018-06-10T06:28:44.945Z,20.80
2018-06-10T06:31:13.599Z,21.00
2018-06-10T06:33:47.816Z,21.10
2018-06-10T06:36:17.339Z,21.20
2018-06-10T06:38:46.063Z,21.30
2018-06-10T06:41:14.678Z,21.50
2018-06-10T06:43:43.642Z,21.70
2018-06-10T06:46:12.358Z,21.90
2018-06-10T06:48:41.017Z,21.90
2018-06-10T06:51:09.621Z,22.10
2018-06-10T06:53:38.239Z,22.20
2018-06-10T06:56:06.857Z,22.20
2018-06-10T06:58:35.516Z,22.00
2018-06-10T07:01:04.113Z,22.30
2018-06-10T07:03:32.798Z,22.60
2018-06-10T07:08:29.767Z,23.80
2018-06-10T07:10:58.431Z,24.30
2018-06-10T07:13:27.157Z,24.10
2018-06-10T07:15:55.846Z,24.40
2018-06-10T07:18:24.532Z,24.50
2018-06-10T07:20:53.173Z,24.30
2018-06-10T07:23:21.748Z,24.10
2018-06-10T07:25:50.442Z,24.50
2018-06-10T07:28:19.166Z,25.10
2018-06-10T07:30:47.911Z,25.40
2018-06-10T07:33:16.572Z,27.20
2018-06-10T07:35:45.186Z,29.00
2018-06-10T07:38:13.811Z,29.60
2018-06-10T07:40:42.483Z,31.00
2018-06-10T07:43:11.138Z,31.60
2018-06-10T07:45:39.832Z,33.00
2018-06-10T07:48:08.474Z,33.20
2018-06-10T07:50:37.098Z,33.30
2018-06-10T07:53:05.739Z,33.40
2018-06-10T07:55:34.504Z,32.60
2018-06-10T07:58:03.106Z,32.20
2018-06-10T08:00:31.821Z,32.30
2018-06-10T08:03:00.548Z,32.60
2018-06-10T08:05:29.329Z,32.00
2018-06-10T08:07:57.994Z,32.50
2018-06-10T08:10:26.759Z,33.20
2018-06-10T08:12:55.486Z,32.70
2018-06-10T08:15:24.262Z,32.80
2018-06-10T08:17:52.987Z,32.70
2018-06-10T08:20:21.659Z,31.90
2018-06-10T08:22:50.343Z,31.60
2018-06-10T08:25:19.054Z,31.70
2018-06-10T08:27:47.817Z,30.70
2018-06-10T08:30:16.604Z,31.20
2018-06-10T08:32:45.361Z,31.60
2018-06-10T08:35:13.983Z,32.40
2018-06-10T08:37:42.801Z,33.10
2018-06-10T08:40:11.461Z,34.70
2018-06-10T08:42:40.072Z,32.00
2018-06-10T08:45:08.729Z,30.00
2018-06-10T08:47:37.375Z,30.80
2018-06-10T08:50:06.137Z,33.20
2018-06-10T08:52:34.860Z,34.50
2018-06-10T08:55:03.630Z,35.50
2018-06-10T08:57:32.515Z,34.60
2018-06-10T09:00:01.238Z,35.30
2018-06-10T09:02:30.094Z,35.60
2018-06-10T09:04:58.765Z,36.20
2018-06-10T09:07:27.550Z,35.40
2018-06-10T09:09:57.171Z,36.00
2018-06-10T09:12:25.886Z,36.30
2018-06-10T09:17:22.945Z,37.30
2018-06-10T09:19:51.626Z,36.80
2018-06-10T09:22:20.327Z,36.60
2018-06-10T09:27:19.186Z,38.20
2018-06-10T09:29:48.514Z,38.20
2018-06-10T09:32:18.864Z,38.20
2018-06-10T09:34:53.146Z,38.70
2018-06-10T09:37:22.852Z,36.40
2018-06-10T09:39:51.532Z,33.70
2018-06-10T09:42:20.166Z,32.20
2018-06-10T09:44:49.109Z,33.80
2018-06-10T09:47:17.747Z,35.10
2018-06-10T09:49:46.466Z,33.90
2018-06-10T09:52:15.837Z,32.70
2018-06-10T09:54:44.622Z,34.30
2018-06-10T09:57:13.306Z,36.50
2018-06-10T09:59:41.961Z,37.00
2018-06-10T10:02:10.705Z,36.50
2018-06-10T10:04:39.316Z,33.90
2018-06-10T10:07:07.905Z,34.20
2018-06-10T10:09:36.545Z,34.40
2018-06-10T10:12:05.355Z,32.70
2018-06-10T10:14:34.143Z,30.60
2018-06-10T10:17:02.783Z,30.70
2018-06-10T10:19:31.477Z,33.00
2018-06-10T10:22:00.141Z,35.40
2018-06-10T10:24:28.821Z,37.50
2018-06-10T10:26:57.393Z,39.00
2018-06-10T10:29:26.706Z,38.90
2018-06-10T10:31:55.399Z,35.90
2018-06-10T10:34:24.007Z,33.70
2018-06-10T10:36:52.641Z,32.40
2018-06-10T10:39:34.547Z,32.30
2018-06-10T10:42:08.785Z,32.60
2018-06-10T10:47:10.973Z,32.20
2018-06-10T10:49:39.626Z,32.20
2018-06-10T10:52:08.298Z,32.70
2018-06-10T10:54:36.857Z,32.10
2018-06-10T10:57:05.683Z,34.50
2018-06-10T10:59:34.380Z,36.90
2018-06-10T11:02:03.105Z,38.10
2018-06-10T11:04:31.883Z,38.90
2018-06-10T11:07:11.612Z,39.60
2018-06-10T11:09:40.287Z,38.70
2018-06-10T11:12:08.914Z,37.80
2018-06-10T11:14:37.569Z,36.50
2018-06-10T11:17:06.272Z,35.40
2018-06-10T11:19:34.930Z,35.00
2018-06-10T11:22:04.191Z,35.20
2018-06-10T11:24:33.019Z,34.80
2018-06-10T11:27:01.809Z,34.10
2018-06-10T11:29:30.660Z,33.80
2018-06-10T11:31:59.366Z,34.00
2018-06-10T11:34:33.715Z,36.10
2018-06-10T11:37:02.434Z,36.90
2018-06-10T11:39:31.171Z,36.20
2018-06-10T12:01:12.890Z,33.00
2018-06-10T12:03:41.784Z,32.90
2018-06-10T12:06:10.569Z,34.30
2018-06-10T12:08:39.277Z,35.30
2018-06-10T12:11:07.951Z,36.40
2018-06-10T12:13:36.713Z,35.00
2018-06-10T12:16:05.470Z,33.30
2018-06-10T12:18:34.187Z,32.00
2018-06-10T12:21:02.866Z,31.70
2018-06-10T12:23:31.470Z,32.40
2018-06-10T12:26:00.092Z,33.60
2018-06-10T12:28:28.675Z,34.70
2018-06-10T12:30:57.261Z,35.10
2018-06-10T12:33:25.969Z,35.00
2018-06-10T12:35:54.593Z,35.50
2018-06-10T12:38:23.265Z,34.80
2018-06-10T12:40:51.904Z,33.70
2018-06-10T12:43:20.653Z,32.30
2018-06-10T12:45:49.363Z,31.70
2018-06-10T12:48:17.950Z,30.90
2018-06-10T12:50:46.705Z,30.50
2018-06-10T12:53:15.351Z,30.70
2018-06-10T12:55:44.065Z,31.80
2018-06-10T12:58:12.739Z,33.30
2018-06-10T13:00:41.344Z,34.80
2018-06-10T13:03:09.926Z,35.40
2018-06-10T13:05:38.624Z,35.50
2018-06-10T13:08:07.339Z,35.80
2018-06-10T13:10:35.992Z,37.00
2018-06-10T13:13:04.656Z,37.50
2018-06-10T13:15:33.225Z,36.70
2018-06-10T13:18:01.854Z,36.70
2018-06-10T13:20:30.469Z,36.80
2018-06-10T13:22:59.089Z,37.10
2018-06-10T13:25:27.689Z,38.10
2018-06-10T13:27:56.329Z,38.10
2018-06-10T13:30:24.979Z,38.20
2018-06-10T13:32:54.143Z,38.50
2018-06-10T13:35:23.150Z,37.70
2018-06-10T13:37:51.957Z,36.90
2018-06-10T13:40:20.595Z,36.00
2018-06-10T13:42:49.229Z,34.70
2018-06-10T13:45:17.895Z,34.00
2018-06-10T13:50:14.900Z,34.00
2018-06-10T13:52:44.214Z,33.90
2018-06-10T13:55:13.166Z,33.30
2018-06-10T13:57:41.968Z,32.60
2018-06-10T14:00:10.656Z,32.00
2018-06-10T14:02:39.550Z,31.60
2018-06-10T14:05:08.288Z,31.20
2018-06-10T14:07:36.981Z,31.00
2018-06-10T14:10:05.692Z,30.60
2018-06-10T14:12:34.347Z,30.10
2018-06-10T14:15:03.198Z,29.90
2018-06-10T14:17:31.883Z,29.50
2018-06-10T14:20:00.636Z,28.80
2018-06-10T14:22:29.521Z,28.60
2018-06-10T14:24:58.174Z,28.80
2018-06-10T14:27:26.971Z,29.20
2018-06-10T14:29:55.997Z,29.50
2018-06-10T14:32:24.662Z,29.80
2018-06-10T14:37:21.741Z,29.80
2018-06-10T14:39:50.453Z,29.60
2018-06-10T14:42:19.061Z,29.40
2018-06-10T14:44:47.782Z,29.20
2018-06-10T14:47:16.425Z,28.80
2018-06-10T14:49:45.027Z,28.50
2018-06-10T14:52:13.676Z,28.20
2018-06-10T14:55:04.347Z,27.70
2018-06-10T14:57:32.941Z,27.20
2018-06-10T15:00:01.652Z,26.50
2018-06-10T15:02:30.265Z,25.80
2018-06-10T15:05:02.538Z,24.90
2018-06-10T15:07:31.261Z,23.70
2018-06-10T15:09:59.923Z,22.70
2018-06-10T15:18:14.598Z,21.60
2018-06-10T15:20:43.421Z,21.60
2018-06-10T15:23:12.006Z,21.70
2018-06-10T15:25:44.547Z,21.80
2018-06-10T15:28:13.264Z,21.90
2018-06-10T15:36:03.582Z,21.60
2018-06-10T15:38:32.305Z,21.80
2018-06-10T15:41:01.000Z,22.00
2018-06-10T15:43:29.685Z,22.30
2018-06-10T15:45:58.405Z,22.40
2018-06-10T15:48:32.402Z,22.40
2018-06-10T15:51:03.279Z,22.60
2018-06-10T15:53:31.949Z,22.60
2018-06-10T15:56:00.571Z,22.60
2018-06-10T15:58:29.300Z,22.70
2018-06-10T16:00:57.986Z,23.10
2018-06-10T16:03:26.630Z,23.20
2018-06-10T16:05:55.398Z,23.10
2018-06-10T16:08:24.926Z,23.30
2018-06-10T16:10:53.742Z,23.30
2018-06-10T16:13:22.438Z,23.10
2018-06-10T16:15:51.100Z,22.70
2018-06-10T16:18:19.842Z,22.40
2018-06-10T16:20:48.498Z,22.10
2018-06-10T16:23:17.481Z,22.10
2018-06-10T16:25:46.160Z,22.00
2018-06-10T16:28:27.215Z,21.90
2018-06-10T16:30:55.940Z,21.80
2018-06-10T16:33:24.626Z,22.20
2018-06-10T16:35:53.301Z,23.00
2018-06-10T16:38:22.133Z,24.10
2018-06-10T16:43:19.088Z,25.60
2018-06-10T16:45:47.761Z,26.10
2018-06-10T16:48:17.393Z,26.40
2018-06-10T16:50:46.101Z,26.40
2018-06-10T16:53:14.718Z,26.40
2018-06-10T16:55:43.327Z,26.20
2018-06-10T16:58:11.912Z,25.60
2018-06-10T17:00:40.612Z,25.00
2018-06-10T17:03:09.260Z,24.30
2018-06-10T17:05:37.910Z,23.70
2018-06-10T17:08:06.528Z,23.30
2018-06-10T17:10:35.157Z,23.30
2018-06-10T17:13:03.816Z,23.40
2018-06-10T17:15:32.566Z,23.70
2018-06-10T17:18:13.398Z,24.00
2018-06-10T17:20:42.022Z,24.10
2018-06-10T17:23:10.626Z,24.30
2018-06-10T17:25:39.298Z,24.40
2018-06-10T17:28:07.900Z,24.30
2018-06-10T17:30:36.597Z,24.30
2018-06-10T17:33:05.260Z,24.10
2018-06-10T17:35:34.051Z,23.90
2018-06-10T17:38:02.747Z,23.60
2018-06-10T17:40:31.464Z,23.40
2018-06-10T17:43:04.261Z,23.10
2018-06-10T17:45:33.000Z,23.00
2018-06-10T17:48:01.659Z,22.90
2018-06-10T17:50:31.314Z,22.90
2018-06-10T17:55:52.943Z,22.80
2018-06-10T18:01:20.315Z,22.90
2018-06-10T18:03:48.976Z,23.00
2018-06-10T18:06:17.679Z,22.90
2018-06-10T18:08:46.320Z,22.80
2018-06-10T18:11:15.573Z,22.70
2018-06-10T18:13:44.317Z,22.60
2018-06-10T18:16:13.376Z,22.50
2018-06-10T18:18:42.237Z,22.40
2018-06-10T18:21:11.023Z,22.20
2018-06-10T18:23:39.724Z,22.00
2018-06-10T18:26:08.568Z,21.90
2018-06-10T18:28:49.069Z,21.70
2018-06-10T18:31:23.444Z,21.60
2018-06-10T18:33:57.735Z,21.50
2018-06-10T18:36:28.460Z,21.40
2018-06-10T18:38:57.174Z,21.30
2018-06-10T18:41:25.933Z,21.10
2018-06-10T18:43:54.887Z,21.00
2018-06-10T18:46:23.704Z,20.80
2018-06-10T18:48:52.683Z,20.60
2018-06-10T18:51:21.995Z,20.50
2018-06-10T18:53:50.991Z,20.40
2018-06-10T18:56:19.865Z,20.30
2018-06-10T18:58:48.927Z,20.10
2018-06-10T19:01:17.867Z,19.90
2018-06-10T19:03:46.699Z,19.80
2018-06-10T19:06:15.365Z,19.60
2018-06-10T19:08:44.422Z,19.50
2018-06-10T19:11:13.189Z,19.40
2018-06-10T19:13:41.991Z,19.20
2018-06-10T19:16:10.755Z,19.10
2018-06-10T19:18:39.631Z,19.00
2018-06-10T19:21:08.602Z,18.90
2018-06-10T19:23:37.467Z,18.80
2018-06-10T19:26:06.169Z,18.70
2018-06-10T19:28:34.919Z,18.70
2018-06-10T19:31:03.666Z,18.60
2018-06-10T19:33:32.327Z,18.60
2018-06-10T19:36:01.085Z,18.60
2018-06-10T19:38:29.737Z,18.60
2018-06-10T19:40:58.447Z,18.50
2018-06-10T19:43:27.124Z,18.50
2018-06-10T19:45:55.834Z,18.40
2018-06-10T19:48:24.535Z,18.40
2018-06-10T19:50:53.345Z,18.40
2018-06-10T19:53:22.020Z,18.50
2018-06-10T19:55:50.679Z,18.50
2018-06-10T19:58:19.356Z,18.40
2018-06-10T20:00:48.137Z,18.30
2018-06-10T20:03:16.824Z,18.30
2018-06-10T20:05:45.515Z,18.30
2018-06-10T20:08:14.313Z,18.30
2018-06-10T20:10:43.017Z,18.30
2018-06-10T20:13:11.699Z,18.30
2018-06-10T20:15:40.578Z,18.20
2018-06-10T20:18:09.390Z,18.30
2018-06-10T20:20:38.111Z,18.20
2018-06-10T20:23:06.827Z,18.20
2018-06-10T20:25:35.578Z,18.10
2018-06-10T20:28:04.325Z,18.00
2018-06-10T20:30:33.009Z,17.90
2018-06-10T20:33:01.656Z,17.80
2018-06-10T20:35:30.330Z,17.80
2018-06-10T20:37:59.032Z,17.90
2018-06-10T20:40:27.779Z,18.00
2018-06-10T20:42:56.483Z,18.00
2018-06-10T20:45:25.265Z,18.00
2018-06-10T20:47:53.940Z,17.90
2018-06-10T20:50:22.735Z,17.80
2018-06-10T20:52:51.497Z,17.70
2018-06-10T20:55:20.287Z,17.80
2018-06-10T20:57:49.005Z,17.80
2018-06-10T21:00:17.680Z,17.80
2018-06-10T21:02:46.357Z,17.70
2018-06-10T21:05:15.110Z,17.70
2018-06-10T21:07:43.904Z,17.70
2018-06-10T21:10:12.614Z,17.60
2018-06-10T21:12:41.292Z,17.50
2018-06-10T21:15:09.945Z,17.50
2018-06-10T21:17:38.627Z,17.50
2018-06-10T21:20:07.296Z,17.40
2018-06-10T21:22:35.983Z,17.40
2018-06-10T21:25:04.740Z,17.40
2018-06-10T21:27:33.522Z,17.30
2018-06-10T21:30:02.251Z,17.20
2018-06-10T21:32:30.953Z,17.20
2018-06-10T21:34:59.626Z,17.20
2018-06-10T21:37:28.409Z,17.30
2018-06-10T21:39:57.070Z,17.30
2018-06-10T21:42:25.862Z,17.30
2018-06-10T21:44:54.534Z,17.40
2018-06-10T21:47:23.223Z,17.40
2018-06-10T21:49:51.890Z,17.40
2018-06-10T21:52:20.599Z,17.40
2018-06-10T21:54:49.240Z,17.40
2018-06-10T21:57:17.949Z,17.40
2018-06-10T21:59:46.630Z,17.40
2018-06-10T22:02:15.225Z,17.40
2018-06-10T22:04:43.883Z,17.40
2018-06-10T22:07:12.550Z,17.40
2018-06-10T22:09:41.142Z,17.30
2018-06-10T22:12:09.756Z,17.40
2018-06-10T22:14:38.448Z,17.50
2018-06-10T22:17:07.266Z,17.50
2018-06-10T22:19:35.889Z,17.50
2018-06-10T22:22:04.600Z,17.50
2018-06-10T22:24:33.287Z,17.40
2018-06-10T22:27:01.950Z,17.40
2018-06-10T22:29:30.592Z,17.40
2018-06-10T22:31:59.315Z,17.40
2018-06-10T22:34:28.019Z,17.50
2018-06-10T22:36:58.779Z,17.40
2018-06-10T22:39:27.369Z,17.30
2018-06-10T22:41:56.087Z,17.40
2018-06-10T22:44:24.728Z,17.30
2018-06-10T22:46:53.315Z,17.20
2018-06-10T22:49:21.969Z,17.20
2018-06-10T22:51:50.678Z,17.20
2018-06-10T22:54:46.346Z,17.10
2018-06-10T22:57:15.006Z,17.10
2018-06-10T22:59:43.584Z,17.10
2018-06-10T23:02:12.164Z,17.20
2018-06-10T23:04:40.856Z,17.20
2018-06-10T23:07:09.547Z,17.20
2018-06-10T23:09:38.278Z,17.20
2018-06-10T23:12:07.008Z,17.20
2018-06-10T23:14:35.675Z,17.20
2018-06-10T23:17:04.302Z,17.20
2018-06-10T23:19:32.923Z,17.20
2018-06-10T23:22:01.645Z,17.20
2018-06-10T23:24:30.330Z,17.20
2018-06-10T23:26:59.377Z,17.30
2018-06-10T23:29:28.079Z,17.20
2018-06-10T23:31:56.777Z,17.10
2018-06-10T23:34:25.478Z,17.10
2018-06-10T23:36:54.076Z,17.00
2018-06-10T23:39:22.733Z,16.90
2018-06-10T23:41:51.377Z,16.80
2018-06-10T23:44:20.054Z,16.80
2018-06-10T23:46:48.641Z,16.70
2018-06-10T23:49:17.253Z,16.70
2018-06-10T23:51:46.140Z,16.70
2018-06-10T23:54:14.852Z,16.60
2018-06-10T23:56:43.468Z,16.50
2018-06-10T23:59:12.135Z,16.40
